Time;durP1;ratioP1;P1;durP2;ratioP2;P2;SDS_P1;SDS_P2;PMS_P1;PMS_P2;Temp;Humidity;BMP_temperature;BMP_pressure;BME280_temperature;BME280_humidity;BME280_pressure;Samples;Min_cycle;Max_cycle;Signal;HPM_P1;HPM_P2
2023/01/07 00:01:32;;;;;;;;;;;;;;;11.44;96.56;101663.28;5068162;28;19920;-46
2023/01/07 00:03:58;;;;;;;;;;;;;;;11.44;96.58;101665.84;5070252;28;20295;-45
2023/01/07 00:06:25;;;;;;;;;;;;;;;11.43;96.64;101664.09;5070134;28;19916;-45
2023/01/07 00:08:52;;;;;;;;;;;;;;;11.42;96.49;101657.22;5073870;28;19927;-45
2023/01/07 00:11:19;;;;;;;;;;;;;;;11.43;96.42;101661.53;5073019;28;19920;-44
2023/01/07 00:13:45;;;;;;;;;;;;;;;11.42;96.47;101658.09;5073226;28;19911;-45
2023/01/07 00:16:11;;;;;;;;;;;;;;;11.41;96.43;101656.34;5059651;28;19939;-45
2023/01/07 00:18:37;;;;;;;;;;;;;;;11.40;96.34;101649.41;5068149;28;19912;-45
2023/01/07 00:21:04;;;;;;;;;;;;;;;11.40;96.26;101657.13;5066791;28;20373;-44
2023/01/07 00:23:29;;;;;;;;;;;;;;;11.40;96.13;101657.13;5073799;28;19919;-46
2023/01/07 00:25:59;;;;;;;;;;;;;;;11.38;96.33;101647.59;5073587;28;20292;-46
2023/01/07 00:28:24;;;;;;;;;;;;;;;11.38;96.32;101652.75;5076859;28;20018;-43
2023/01/07 00:30:49;;;;;;;;;;;;;;;11.36;96.41;101650.13;5072645;28;20120;-45
2023/01/07 00:33:15;;;;;;;;;;;;;;;11.34;96.30;101641.44;5076720;28;19916;-45
2023/01/07 00:35:43;;;;;;;;;;;;;;;11.36;96.46;101634.69;5066946;28;19924;-45
2023/01/07 00:38:09;;;;;;;;;;;;;;;11.35;96.37;101638.09;5067544;28;19927;-46
2023/01/07 00:40:34;;;;;;;;;;;;;;;11.35;96.47;101635.50;5070777;28;19916;-43
2023/01/07 00:43:05;;;;;;;;;;;;;;;11.34;96.47;101633.72;5066336;28;20015;-45
2023/01/07 00:45:34;;;;;;;;;;;;;;;11.34;96.24;101632.84;5072065;28;20297;-45
2023/01/07 00:48:00;;;;;;;;;;;;;;;11.33;96.18;101634.56;5065999;28;20368;-48
2023/01/07 00:50:27;;;;;;;;;;;;;;;11.31;96.27;101620.75;5071735;28;20310;-46
2023/01/07 00:52:53;;;;;;;;;;;;;;;11.32;96.33;101626.78;5073616;28;19919;-44
2023/01/07 00:55:18;;;;;;;;;;;;;;;11.31;96.33;101625.03;5074334;28;20335;-46
2023/01/07 00:57:44;;;;;;;;;;;;;;;11.29;96.02;101612.09;5073803;28;19913;-46
2023/01/07 01:00:10;;;;;;;;;;;;;;;11.27;96.25;101618.88;5073929;28;19965;-46
2023/01/07 01:02:36;;;;;;;;;;;;;;;11.26;96.04;101610.28;5067476;28;19939;-47
2023/01/07 01:05:01;;;;;;;;;;;;;;;11.26;96.18;101609.41;5072006;28;20373;-46
2023/01/07 01:07:26;;;;;;;;;;;;;;;11.25;96.13;101605.06;5069403;28;19997;-48
2023/01/07 01:09:52;;;;;;;;;;;;;;;11.24;95.99;101595.59;5069309;28;19913;-48
2023/01/07 01:12:17;;;;;;;;;;;;;;;11.23;96.05;101599.88;5072608;28;19965;-44
2023/01/07 01:14:42;;;;;;;;;;;;;;;11.21;95.96;101593.78;5067590;28;19924;-45
2023/01/07 01:17:07;;;;;;;;;;;;;;;11.23;95.98;101593.84;5070967;28;19934;-47
2023/01/07 01:19:33;;;;;;;;;;;;;;;11.20;95.69;101581.72;5066920;28;20365;-47
2023/01/07 01:21:58;;;;;;;;;;;;;;;11.19;95.82;101582.56;5066523;28;19931;-47
2023/01/07 01:24:23;;;;;;;;;;;;;;;11.18;95.92;101593.69;5071814;28;19927;-47
2023/01/07 01:26:48;;;;;;;;;;;;;;;11.18;95.74;101579.94;5073004;28;19917;-47
2023/01/07 01:29:14;;;;;;;;;;;;;;;11.17;95.80;101580.75;5074648;28;19920;-47
2023/01/07 01:31:39;;;;;;;;;;;;;;;11.15;95.74;101580.69;5072182;28;20011;-47
2023/01/07 01:34:04;;;;;;;;;;;;;;;11.13;95.62;101574.59;5074856;28;19944;-44
2023/01/07 01:36:29;;;;;;;;;;;;;;;11.14;95.67;101583.19;5073395;28;19916;-45
2023/01/07 01:38:56;;;;;;;;;;;;;;;11.14;95.76;101576.34;5076648;28;19928;-45
2023/01/07 01:41:21;;;;;;;;;;;;;;;11.12;95.71;101582.28;5066749;28;19917;-44
2023/01/07 01:43:46;;;;;;;;;;;;;;;11.14;95.78;101575.47;5076580;28;19916;-44
2023/01/07 01:46:12;;;;;;;;;;;;;;;11.11;95.73;101580.53;5070424;28;19912;-45
2023/01/07 01:48:38;;;;;;;;;;;;;;;11.12;95.74;101575.44;5071522;28;19925;-44
2023/01/07 01:51:05;;;;;;;;;;;;;;;11.11;95.73;101580.53;5073394;28;19919;-44
2023/01/07 01:53:32;;;;;;;;;;;;;;;11.11;95.69;101583.97;5059308;28;19912;-46
2023/01/07 01:56:01;;;;;;;;;;;;;;;11.10;95.68;101579.66;5065518;28;19923;-46
2023/01/07 01:58:29;;;;;;;;;;;;;;;11.10;95.72;101583.91;5067847;28;19917;-46
2023/01/07 02:00:54;;;;;;;;;;;;;;;11.10;95.71;101582.22;5065535;28;19920;-46
2023/01/07 02:03:21;;;;;;;;;;;;;;;11.08;95.76;101577.84;5074517;28;20292;-44
2023/01/07 02:05:46;;;;;;;;;;;;;;;11.06;95.73;101574.34;5069719;28;19916;-45
2023/01/07 02:08:11;;;;;;;;;;;;;;;11.06;95.78;101579.47;5067316;28;19922;-45
2023/01/07 02:10:37;;;;;;;;;;;;;;;11.06;95.70;101574.34;5063310;28;19920;-44
2023/01/07 02:13:05;;;;;;;;;;;;;;;11.06;95.64;101579.47;5067612;28;19923;-47
2023/01/07 02:15:31;;;;;;;;;;;;;;;11.04;95.60;101570.81;5067736;28;19918;-46
2023/01/07 02:18:10;;;;;;;;;;;;;;;11.03;95.66;101564.78;5075808;28;19998;-47
2023/01/07 02:20:54;;;;;;;;;;;;;;;11.05;95.65;101573.47;5074384;28;19920;-48
2023/01/07 02:23:28;;;;;;;;;;;;;;;11.01;95.54;101566.44;5072521;28;19912;-45
2023/01/07 02:26:23;;;;;;;;;;;;;;;11.00;95.51;101562.97;5066368;28;19912;-45
2023/01/07 02:28:54;;;;;;;;;;;;;;;11.00;95.58;101559.53;5068970;28;20273;-47
2023/01/07 02:31:38;;;;;;;;;;;;;;;10.99;95.65;101568.09;5080487;28;20384;-46
2023/01/07 02:34:13;;;;;;;;;;;;;;;10.98;95.54;101567.22;5076871;28;19947;-46
2023/01/07 02:36:38;;;;;;;;;;;;;;;10.98;95.46;101572.34;5074444;28;19916;-45
2023/01/07 02:39:22;;;;;;;;;;;;;;;10.98;95.49;101572.34;5077852;28;19923;-45
2023/01/07 02:41:58;;;;;;;;;;;;;;;10.96;95.48;101561.09;5073364;28;20416;-44
2023/01/07 02:44:42;;;;;;;;;;;;;;;10.96;95.46;101558.53;5074652;28;19916;-47
2023/01/07 02:47:24;;;;;;;;;;;;;;;10.97;95.47;101556.84;5069543;28;19920;-46
2023/01/07 02:49:50;;;;;;;;;;;;;;;10.97;95.38;101561.97;5072927;28;19916;-47
2023/01/07 02:52:19;;;;;;;;;;;;;;;10.97;95.47;101561.97;5073756;28;19916;-44
2023/01/07 02:54:46;;;;;;;;;;;;;;;10.96;95.38;101560.22;5075668;28;19913;-44
2023/01/07 02:57:26;;;;;;;;;;;;;;;10.95;95.33;101558.47;5074484;28;19960;-44
2023/01/07 03:00:10;;;;;;;;;;;;;;;10.95;95.31;101553.34;5069222;28;19993;-44
2023/01/07 03:02:41;;;;;;;;;;;;;;;10.93;95.21;101549.84;5071632;28;19999;-46
2023/01/07 03:05:09;;;;;;;;;;;;;;;10.94;95.24;101555.03;5068755;28;19916;-46
2023/01/07 03:07:37;;;;;;;;;;;;;;;10.94;95.32;101549.88;5078220;28;19916;-45
2023/01/07 03:10:21;;;;;;;;;;;;;;;10.92;95.37;101542.91;5080370;28;20005;-48
2023/01/07 03:12:53;;;;;;;;;;;;;;;10.91;95.35;101541.16;5071027;28;19995;-46
2023/01/07 03:15:18;;;;;;;;;;;;;;;10.91;95.46;101536.03;5064159;28;19920;-45
2023/01/07 03:17:49;;;;;;;;;;;;;;;10.91;95.57;101526.59;5066589;28;19919;-46
2023/01/07 03:20:15;;;;;;;;;;;;;;;10.92;95.63;101542.91;5069798;28;20435;-45
2023/01/07 03:22:41;;;;;;;;;;;;;;;10.93;95.57;101534.41;5072897;28;19913;-44
2023/01/07 03:25:07;;;;;;;;;;;;;;;10.92;95.63;101527.47;5071235;28;19919;-45
2023/01/07 03:27:34;;;;;;;;;;;;;;;10.91;95.62;101520.56;5072065;28;19916;-46
2023/01/07 03:30:00;;;;;;;;;;;;;;;10.90;95.54;101517.13;5072096;28;19956;-45
2023/01/07 03:32:31;;;;;;;;;;;;;;;10.90;95.70;101509.41;5072879;28;19916;-46
2023/01/07 03:34:56;;;;;;;;;;;;;;;10.90;95.74;101512.00;5072946;28;21021;-46
2023/01/07 03:37:23;;;;;;;;;;;;;;;10.90;95.71;101505.97;5072796;28;19920;-46
2023/01/07 03:39:49;;;;;;;;;;;;;;;10.91;95.77;101505.16;5071855;28;20388;-44
2023/01/07 03:45:02;;;;;;;;;;;;;;;10.91;95.79;101494.84;5079688;28;19958;-45
2023/01/07 03:47:28;;;;;;;;;;;;;;;10.91;95.72;101489.72;5081294;28;20315;-44
2023/01/07 03:49:53;;;;;;;;;;;;;;;10.91;95.91;101498.28;5070949;28;20339;-44
2023/01/07 03:52:18;;;;;;;;;;;;;;;10.91;95.77;101490.56;5066331;28;20007;-46
2023/01/07 03:54:44;;;;;;;;;;;;;;;10.92;95.71;101487.22;5076976;28;20371;-44
2023/01/07 03:57:09;;;;;;;;;;;;;;;10.92;95.84;101486.31;5072689;28;19916;-47
2023/01/07 03:59:34;;;;;;;;;;;;;;;10.92;95.70;101491.44;5076492;28;19950;-45
2023/01/07 04:01:59;;;;;;;;;;;;;;;10.91;95.81;101493.16;5071301;28;20174;-45
2023/01/07 04:04:24;;;;;;;;;;;;;;;10.91;95.75;101484.56;5072550;28;19920;-46
2023/01/07 04:06:50;;;;;;;;;;;;;;;10.92;95.80;101486.31;5071547;28;19963;-44
2023/01/07 04:09:17;;;;;;;;;;;;;;;10.93;95.89;101477.78;5066031;28;19928;-46
2023/01/07 04:11:42;;;;;;;;;;;;;;;10.94;95.81;101476.97;5070775;28;19916;-45
2023/01/07 04:14:08;;;;;;;;;;;;;;;10.92;95.75;101471.78;5073271;28;19927;-47
2023/01/07 04:16:33;;;;;;;;;;;;;;;10.91;95.78;101463.97;5069893;28;19920;-46
2023/01/07 04:18:58;;;;;;;;;;;;;;;10.93;95.74;101465.81;5067504;28;19917;-44
2023/01/07 04:21:23;;;;;;;;;;;;;;;10.94;95.61;101464.09;5059368;28;20381;-47
2023/01/07 04:23:49;;;;;;;;;;;;;;;10.93;95.53;101454.63;5057337;28;19935;-44
2023/01/07 04:26:14;;;;;;;;;;;;;;;10.94;95.62;101456.38;5059312;28;19916;-45
2023/01/07 04:28:39;;;;;;;;;;;;;;;10.92;95.62;101451.19;5056963;28;19927;-47
2023/01/07 04:31:05;;;;;;;;;;;;;;;10.91;95.48;101444.25;5056493;28;19924;-45
2023/01/07 04:33:30;;;;;;;;;;;;;;;10.92;95.57;101451.19;5056491;28;19940;-44
2023/01/07 04:35:56;;;;;;;;;;;;;;;10.92;95.38;101452.84;5061482;28;19943;-44
2023/01/07 04:38:22;;;;;;;;;;;;;;;10.93;95.30;101446.91;5058257;28;19928;-47
2023/01/07 04:40:48;;;;;;;;;;;;;;;10.93;95.28;101441.78;5059611;28;19916;-48
2023/01/07 04:43:13;;;;;;;;;;;;;;;10.94;95.29;101439.25;5060378;28;19920;-46
2023/01/07 04:45:38;;;;;;;;;;;;;;;10.94;95.12;101435.78;5058455;28;19913;-46
2023/01/07 04:48:03;;;;;;;;;;;;;;;10.92;94.98;101425.47;5057377;28;19920;-46
2023/01/07 04:50:29;;;;;;;;;;;;;;;10.92;95.04;101438.31;5060259;28;19923;-46
2023/01/07 04:52:54;;;;;;;;;;;;;;;10.91;95.02;101433.09;5059618;28;19916;-44
2023/01/07 04:55:19;;;;;;;;;;;;;;;10.91;95.02;101439.13;5054651;28;19924;-46
2023/01/07 04:57:44;;;;;;;;;;;;;;;10.91;94.86;101435.66;5059677;28;19923;-46
2023/01/07 05:00:10;;;;;;;;;;;;;;;10.91;94.83;101427.94;5057435;28;19912;-45
2023/01/07 05:02:35;;;;;;;;;;;;;;;10.91;94.77;101426.25;5060708;28;19921;-47
2023/01/07 05:05:01;;;;;;;;;;;;;;;10.91;94.76;101425.38;5057161;28;19924;-47
2023/01/07 05:07:26;;;;;;;;;;;;;;;10.91;94.75;101423.69;5059153;28;19920;-44
2023/01/07 05:09:51;;;;;;;;;;;;;;;10.93;94.69;101423.75;5061562;28;19974;-44
2023/01/07 05:12:17;;;;;;;;;;;;;;;10.93;94.65;101424.63;5056369;28;19931;-44
2023/01/07 05:14:42;;;;;;;;;;;;;;;10.93;94.61;101421.19;5056237;28;20498;-46
2023/01/07 05:17:07;;;;;;;;;;;;;;;10.94;94.51;101420.34;5055965;28;20327;-46
2023/01/07 05:19:32;;;;;;;;;;;;;;;10.93;94.45;101416.91;5060805;28;20580;-45
2023/01/07 05:21:57;;;;;;;;;;;;;;;10.94;94.43;101408.38;5060805;28;19928;-46
2023/01/07 05:24:23;;;;;;;;;;;;;;;10.95;94.19;101409.25;5059560;28;19924;-47
2023/01/07 05:26:48;;;;;;;;;;;;;;;10.94;94.16;101400.66;5060886;28;19927;-47
2023/01/07 05:29:13;;;;;;;;;;;;;;;10.95;94.06;101411.81;5061759;28;20289;-46
2023/01/07 05:31:39;;;;;;;;;;;;;;;10.94;93.99;101398.06;5059372;28;19916;-44
2023/01/07 05:34:05;;;;;;;;;;;;;;;10.96;93.87;101400.69;5057393;28;20574;-47
2023/01/07 05:36:30;;;;;;;;;;;;;;;10.95;93.82;101398.94;5057165;28;19916;-45
2023/01/07 05:38:55;;;;;;;;;;;;;;;10.94;93.67;101397.19;5058357;28;20537;-47
2023/01/07 05:41:20;;;;;;;;;;;;;;;10.94;93.65;101395.50;5058135;28;19981;-45
2023/01/07 05:43:46;;;;;;;;;;;;;;;10.95;93.33;101401.53;5050584;28;19926;-46
2023/01/07 05:46:11;;;;;;;;;;;;;;;10.93;93.17;101395.47;5058683;28;19939;-47
2023/01/07 05:48:36;;;;;;;;;;;;;;;10.91;93.15;101397.94;5058939;28;19938;-47
2023/01/07 05:51:01;;;;;;;;;;;;;;;10.93;93.06;101390.31;5058791;28;19956;-47
2023/01/07 05:53:27;;;;;;;;;;;;;;;10.91;93.00;101395.38;5059308;28;19924;-47
2023/01/07 05:55:56;;;;;;;;;;;;;;;10.92;92.77;101392.00;5058187;28;20387;-47
2023/01/07 05:58:21;;;;;;;;;;;;;;;10.91;92.59;101381.63;5072096;28;19963;-45
2023/01/07 06:00:46;;;;;;;;;;;;;;;10.90;92.50;101388.50;5055677;28;19920;-45
2023/01/07 06:03:11;;;;;;;;;;;;;;;10.91;92.32;101382.50;5058019;28;20364;-44
2023/01/07 06:05:37;;;;;;;;;;;;;;;10.91;92.33;101386.78;5056579;28;20441;-47
2023/01/07 06:08:02;;;;;;;;;;;;;;;10.91;92.23;101371.34;5059188;28;19935;-45
2023/01/07 06:10:27;;;;;;;;;;;;;;;10.92;92.07;101374.00;5053844;28;19925;-46
2023/01/07 06:12:53;;;;;;;;;;;;;;;10.91;91.58;101372.22;5057037;28;20015;-46
2023/01/07 06:15:18;;;;;;;;;;;;;;;10.89;91.37;101366.16;5060976;28;19917;-48
2023/01/07 06:17:43;;;;;;;;;;;;;;;10.89;91.19;101365.28;5058503;28;20042;-46
2023/01/07 06:20:09;;;;;;;;;;;;;;;10.88;91.12;101358.41;5058497;28;19920;-46
2023/01/07 06:22:35;;;;;;;;;;;;;;;10.86;90.57;101362.59;5061154;28;19923;-47
2023/01/07 06:25:00;;;;;;;;;;;;;;;10.88;90.47;101355.81;5054748;28;19920;-45
2023/01/07 06:27:25;;;;;;;;;;;;;;;10.86;90.38;101352.31;5063177;28;19927;-46
2023/01/07 06:29:50;;;;;;;;;;;;;;;10.86;89.82;101355.78;5056245;28;19934;-44
2023/01/07 06:32:16;;;;;;;;;;;;;;;10.85;89.83;101351.44;5058299;28;20024;-46
2023/01/07 06:34:41;;;;;;;;;;;;;;;10.86;89.88;101339.44;5060715;28;19960;-45
2023/01/07 06:37:06;;;;;;;;;;;;;;;10.84;89.24;101338.53;5060722;28;19922;-47
2023/01/07 06:39:31;;;;;;;;;;;;;;;10.85;88.55;101335.13;5061756;28;20016;-46
2023/01/07 06:41:57;;;;;;;;;;;;;;;10.83;88.48;101336.78;5054941;28;20285;-44
2023/01/07 06:44:22;;;;;;;;;;;;;;;10.83;88.67;101340.22;5055041;28;19924;-44
2023/01/07 06:46:47;;;;;;;;;;;;;;;10.83;89.00;101327.34;5059383;28;20015;-47
2023/01/07 06:49:12;;;;;;;;;;;;;;;10.84;88.67;101334.25;5054148;28;20012;-48
2023/01/07 06:51:37;;;;;;;;;;;;;;;10.83;88.52;101332.50;5055803;28;19960;-46
2023/01/07 06:54:03;;;;;;;;;;;;;;;10.82;88.28;101327.31;5056830;28;19917;-46
2023/01/07 06:56:28;;;;;;;;;;;;;;;10.82;87.89;101320.47;5058876;28;19935;-47
2023/01/07 06:58:53;;;;;;;;;;;;;;;10.84;87.86;101328.22;5058201;28;19920;-45
2023/01/07 07:01:19;;;;;;;;;;;;;;;10.85;87.67;101324.81;5058120;28;19928;-46
2023/01/07 07:03:44;;;;;;;;;;;;;;;10.83;87.74;101329.94;5062986;28;19913;-45
2023/01/07 07:06:09;;;;;;;;;;;;;;;10.83;87.73;101318.75;5063044;28;19920;-44
2023/01/07 07:08:35;;;;;;;;;;;;;;;10.84;87.58;101326.53;5063021;28;19962;-45
2023/01/07 07:11:00;;;;;;;;;;;;;;;10.83;87.51;101311.91;5060702;28;20361;-47
2023/01/07 07:13:25;;;;;;;;;;;;;;;10.83;86.88;101308.47;5059922;28;19928;-46
2023/01/07 07:15:50;;;;;;;;;;;;;;;10.83;87.24;101314.50;5061573;28;19916;-46
2023/01/07 07:18:16;;;;;;;;;;;;;;;10.83;87.11;101301.63;5061969;28;19920;-44
2023/01/07 07:20:42;;;;;;;;;;;;;;;10.84;87.12;101307.66;5062233;28;19916;-45
2023/01/07 07:23:07;;;;;;;;;;;;;;;10.83;86.27;101308.47;5059228;28;20270;-47
2023/01/07 07:25:32;;;;;;;;;;;;;;;10.82;86.46;101306.72;5062960;28;19974;-45
2023/01/07 07:27:57;;;;;;;;;;;;;;;10.81;86.74;101307.56;5063572;28;20140;-46
2023/01/07 07:30:22;;;;;;;;;;;;;;;10.82;86.52;101304.16;5062358;28;20278;-44
2023/01/07 07:32:48;;;;;;;;;;;;;;;10.81;86.67;101305.00;5061937;28;19920;-48
2023/01/07 07:35:13;;;;;;;;;;;;;;;10.81;86.48;101307.56;5059709;28;20011;-46
2023/01/07 07:37:39;;;;;;;;;;;;;;;10.81;85.80;101297.28;5063390;28;19924;-45
2023/01/07 07:40:04;;;;;;;;;;;;;;;10.80;85.95;101292.91;5064983;28;19920;-44
2023/01/07 07:42:30;;;;;;;;;;;;;;;10.80;85.93;101292.91;5059736;28;19953;-44
2023/01/07 07:44:55;;;;;;;;;;;;;;;10.79;85.36;101293.75;5060106;28;19935;-46
2023/01/07 07:47:20;;;;;;;;;;;;;;;10.79;85.67;101291.19;5059699;28;20067;-46
2023/01/07 07:49:46;;;;;;;;;;;;;;;10.79;85.75;101291.19;5062993;28;19947;-45
2023/01/07 07:52:11;;;;;;;;;;;;;;;10.79;85.30;101280.88;5062425;28;19921;-48
2023/01/07 07:54:36;;;;;;;;;;;;;;;10.78;85.59;101280.00;5058875;28;19962;-46
2023/01/07 07:57:02;;;;;;;;;;;;;;;10.77;85.41;101283.41;5057095;28;19970;-45
2023/01/07 07:59:28;;;;;;;;;;;;;;;10.77;85.17;101283.41;5063585;28;19917;-44
2023/01/07 08:01:53;;;;;;;;;;;;;;;10.77;85.04;101275.69;5060837;28;19922;-46
2023/01/07 08:04:18;;;;;;;;;;;;;;;10.75;85.16;101274.78;5060180;28;19927;-45
2023/01/07 08:06:43;;;;;;;;;;;;;;;10.77;84.36;101273.13;5063905;28;20047;-45
2023/01/07 08:09:09;;;;;;;;;;;;;;;10.78;85.04;101271.44;5061841;28;19930;-47
2023/01/07 08:11:34;;;;;;;;;;;;;;;10.79;85.07;101274.03;5055535;28;20007;-46
2023/01/07 08:13:59;;;;;;;;;;;;;;;10.80;84.66;101277.50;5059300;28;20025;-44
2023/01/07 08:16:24;;;;;;;;;;;;;;;10.79;84.58;101274.03;5060544;28;20380;-45
2023/01/07 08:18:50;;;;;;;;;;;;;;;10.80;84.78;101270.69;5060348;28;20292;-44
2023/01/07 08:21:15;;;;;;;;;;;;;;;10.80;84.37;101267.19;5067590;28;19969;-45
2023/01/07 08:23:40;;;;;;;;;;;;;;;10.80;84.50;101267.19;5071850;28;19970;-43
2023/01/07 08:26:05;;;;;;;;;;;;;;;10.80;83.98;101265.53;5063526;28;19919;-45
2023/01/07 08:28:31;;;;;;;;;;;;;;;10.82;84.06;101255.28;5070686;28;19920;-43
2023/01/07 08:31:00;;;;;;;;;;;;;;;10.80;83.84;101260.38;5066670;28;19944;-44
2023/01/07 08:33:25;;;;;;;;;;;;;;;10.81;84.26;101256.97;5069904;28;19916;-46
2023/01/07 08:35:50;;;;;;;;;;;;;;;10.82;83.90;101255.28;5073247;28;20307;-46
2023/01/07 08:38:15;;;;;;;;;;;;;;;10.82;84.16;101248.44;5072081;28;19989;-43
2023/01/07 08:40:41;;;;;;;;;;;;;;;10.82;83.69;101245.88;5074576;28;19923;-46
2023/01/07 08:43:07;;;;;;;;;;;;;;;10.84;84.29;101251.06;5073408;28;19916;-47
2023/01/07 08:45:32;;;;;;;;;;;;;;;10.85;84.23;101247.66;5067827;28;20003;-45
2023/01/07 08:47:58;;;;;;;;;;;;;;;10.86;84.10;101244.25;5067026;28;19916;-45
2023/01/07 08:50:28;;;;;;;;;;;;;;;10.85;83.79;101248.53;5063870;28;19924;-45
2023/01/07 08:52:53;;;;;;;;;;;;;;;10.86;83.88;101241.69;5070233;28;20407;-43
2023/01/07 08:55:18;;;;;;;;;;;;;;;10.87;83.63;101246.91;5067419;28;19951;-45
2023/01/07 08:57:44;;;;;;;;;;;;;;;10.88;83.60;101242.63;5066706;28;19989;-46
2023/01/07 09:00:09;;;;;;;;;;;;;;;10.89;83.38;101241.78;5062081;28;20318;-44
2023/01/07 09:02:35;;;;;;;;;;;;;;;10.89;83.26;101242.66;5075872;28;19912;-43
2023/01/07 09:05:00;;;;;;;;;;;;;;;10.88;82.47;101235.78;5072504;28;19916;-44
2023/01/07 09:07:25;;;;;;;;;;;;;;;10.90;82.85;101230.66;5072495;28;19967;-43
2023/01/07 09:09:50;;;;;;;;;;;;;;;10.91;82.72;101229.84;5077049;28;20283;-48
2023/01/07 09:12:16;;;;;;;;;;;;;;;10.92;82.42;101229.91;5064097;28;20307;-43
2023/01/07 09:14:41;;;;;;;;;;;;;;;10.92;82.08;101223.88;5078393;28;19978;-44
2023/01/07 09:17:06;;;;;;;;;;;;;;;10.92;82.08;101214.47;5067609;28;20013;-45
2023/01/07 09:19:31;;;;;;;;;;;;;;;10.94;82.33;101219.66;5067808;28;20404;-45
2023/01/07 09:21:57;;;;;;;;;;;;;;;10.95;82.53;101214.56;5076529;28;20049;-46
2023/01/07 09:24:22;;;;;;;;;;;;;;;10.96;82.20;101216.31;5068047;28;19971;-47
2023/01/07 09:26:47;;;;;;;;;;;;;;;10.98;82.29;101216.34;5072720;28;19920;-44
2023/01/07 09:29:12;;;;;;;;;;;;;;;11.00;82.35;101204.44;5073474;28;20341;-45
2023/01/07 09:31:38;;;;;;;;;;;;;;;11.01;82.33;101207.03;5069618;28;20371;-45
2023/01/07 09:34:03;;;;;;;;;;;;;;;11.02;81.83;101202.75;5074349;28;20019;-47
2023/01/07 09:36:28;;;;;;;;;;;;;;;11.02;81.63;101198.47;5070918;28;20331;-43
2023/01/07 09:38:53;;;;;;;;;;;;;;;11.03;81.87;101196.78;5072473;28;19920;-45
2023/01/07 09:41:27;;;;;;;;;;;;;;;11.04;81.26;101188.22;5106396;27;19917;-44
2023/01/07 09:43:55;;;;;;;;;;;;;;;11.06;81.02;101183.16;5070395;28;19919;-46
2023/01/07 09:46:21;;;;;;;;;;;;;;;11.07;81.08;101178.06;5077166;28;19912;-46
2023/01/07 09:48:50;;;;;;;;;;;;;;;11.07;80.82;101178.06;5072799;28;20429;-44
2023/01/07 09:51:18;;;;;;;;;;;;;;;11.09;81.17;101170.38;5069942;28;19912;-46
2023/01/07 09:53:54;;;;;;;;;;;;;;;11.10;80.37;101173.00;5065082;28;19913;-44
2023/01/07 09:56:21;;;;;;;;;;;;;;;11.12;80.28;101175.63;5072105;28;19955;-44
2023/01/07 09:58:47;;;;;;;;;;;;;;;11.11;79.70;101161.88;5067312;28;20388;-43
2023/01/07 10:01:14;;;;;;;;;;;;;;;11.16;79.05;101168.06;5068011;28;19916;-44
2023/01/07 10:03:51;;;;;;;;;;;;;;;11.20;78.80;101159.56;5077435;28;20014;-44
2023/01/07 10:06:16;;;;;;;;;;;;;;;11.32;79.62;101155.63;5071497;28;19923;-43
2023/01/07 10:08:48;;;;;;;;;;;;;;;11.46;78.51;101146.59;5066766;28;19916;-46
2023/01/07 10:11:34;;;;;;;;;;;;;;;11.60;78.24;101150.47;5070042;28;19912;-46
2023/01/07 10:14:12;;;;;;;;;;;;;;;11.78;77.93;101134.66;5065137;28;20004;-43
2023/01/07 10:16:40;;;;;;;;;;;;;;;11.98;77.62;101127.47;5067641;28;19925;-46
2023/01/07 10:19:05;;;;;;;;;;;;;;;12.16;77.89;101127.94;5056645;28;20381;-44
2023/01/07 10:21:39;;;;;;;;;;;;;;;12.27;74.90;101111.06;5072914;28;19954;-43
2023/01/07 10:24:12;;;;;;;;;;;;;;;12.36;74.88;101097.50;5071994;28;20355;-44
2023/01/07 10:26:40;;;;;;;;;;;;;;;12.46;72.91;101106.34;5082040;28;19912;-44
2023/01/07 10:29:08;;;;;;;;;;;;;;;12.53;73.01;101098.78;5070046;28;21053;-44
2023/01/07 10:31:33;;;;;;;;;;;;;;;12.64;73.05;101093.88;5065522;28;19912;-45
2023/01/07 10:33:59;;;;;;;;;;;;;;;12.76;73.91;101085.56;5065885;28;19981;-44
2023/01/07 10:36:33;;;;;;;;;;;;;;;12.84;71.11;101073.69;5068070;28;19951;-46
2023/01/07 10:39:17;;;;;;;;;;;;;;;12.95;70.55;101079.09;5072114;28;19931;-46
2023/01/07 10:42:00;;;;;;;;;;;;;;;13.03;70.99;101070.66;5064087;28;20503;-45
2023/01/07 10:44:26;;;;;;;;;;;;;;;13.13;71.62;101058.81;5060883;28;19920;-44
2023/01/07 10:47:10;;;;;;;;;;;;;;;13.20;69.71;101063.28;5070119;28;19961;-43
2023/01/07 10:49:57;;;;;;;;;;;;;;;13.32;69.66;101071.31;5078026;28;19920;-45
2023/01/07 10:52:34;;;;;;;;;;;;;;;13.43;69.11;101068.94;5065763;28;19912;-45
2023/01/07 10:55:15;;;;;;;;;;;;;;;13.49;66.38;101066.47;5080647;28;20053;-45
2023/01/07 10:57:41;;;;;;;;;;;;;;;13.53;66.89;101041.56;5073707;28;19912;-44
2023/01/07 11:00:11;;;;;;;;;;;;;;;13.62;64.89;101037.44;5073148;28;19950;-45
2023/01/07 11:02:37;;;;;;;;;;;;;;;13.71;65.46;101035.84;5071797;28;19919;-46
2023/01/07 11:05:02;;;;;;;;;;;;;;;13.75;65.01;101028.19;5097222;27;19920;-44
2023/01/07 11:07:39;;;;;;;;;;;;;;;13.72;63.92;101030.75;5070987;28;19923;-47
2023/01/07 11:10:06;;;;;;;;;;;;;;;13.66;63.95;101034.09;5071891;28;19959;-45
2023/01/07 11:12:43;;;;;;;;;;;;;;;13.64;64.99;101022.81;5073305;28;20401;-47
2023/01/07 11:15:23;;;;;;;;;;;;;;;13.59;64.76;101026.16;5066845;28;19963;-46
2023/01/07 11:17:53;;;;;;;;;;;;;;;13.54;64.70;101023.53;5063191;28;19981;-45
2023/01/07 11:20:38;;;;;;;;;;;;;;;13.50;65.47;101015.69;5060421;28;19917;-46
2023/01/07 11:23:16;;;;;;;;;;;;;;;13.43;64.79;101009.53;5061229;28;19919;-45
2023/01/07 11:25:42;;;;;;;;;;;;;;;13.39;65.51;101003.44;5060003;28;19919;-44
2023/01/07 11:28:16;;;;;;;;;;;;;;;13.34;65.49;101005.03;5063966;28;20292;-42
2023/01/07 11:30:42;;;;;;;;;;;;;;;13.31;64.58;100991.22;5064308;28;19912;-43
2023/01/07 11:33:17;;;;;;;;;;;;;;;13.28;65.06;100984.25;5060726;28;19912;-46
2023/01/07 11:35:50;;;;;;;;;;;;;;;13.22;64.06;100983.28;5062744;28;19916;-43
2023/01/07 11:38:29;;;;;;;;;;;;;;;13.19;65.11;100976.31;5062761;28;20600;-47
2023/01/07 11:40:55;;;;;;;;;;;;;;;13.19;64.90;100985.78;5061489;28;19916;-43
2023/01/07 11:43:22;;;;;;;;;;;;;;;13.15;64.05;100979.69;5061830;28;19925;-41
2023/01/07 11:45:52;;;;;;;;;;;;;;;13.13;65.29;100976.22;5064380;28;20392;-46
2023/01/07 11:48:37;;;;;;;;;;;;;;;13.12;65.38;100965.00;5059342;28;19916;-41
2023/01/07 11:51:04;;;;;;;;;;;;;;;13.10;65.16;100958.97;5062832;28;19964;-41
2023/01/07 11:53:36;;;;;;;;;;;;;;;13.11;66.05;100952.94;5058987;28;19924;-43
2023/01/07 11:56:07;;;;;;;;;;;;;;;13.11;65.50;100949.50;5063800;28;19959;-43
2023/01/07 11:58:37;;;;;;;;;;;;;;;13.09;64.32;100936.53;5060479;28;19913;-43
2023/01/07 12:01:09;;;;;;;;;;;;;;;13.11;65.58;100934.00;5060422;28;20460;-47
2023/01/07 12:03:36;;;;;;;;;;;;;;;13.10;65.51;100929.66;5058156;28;19964;-44
2023/01/07 12:06:21;;;;;;;;;;;;;;;13.11;65.06;100928.84;5063736;28;20393;-42
2023/01/07 12:09:10;;;;;;;;;;;;;;;13.10;63.87;100924.50;5058523;28;20389;-47
2023/01/07 12:11:37;;;;;;;;;;;;;;;13.08;64.73;100909.00;5057848;28;20060;-43
2023/01/07 12:14:17;;;;;;;;;;;;;;;13.08;65.35;100914.16;5059222;28;19913;-44
2023/01/07 12:16:43;;;;;;;;;;;;;;;13.10;66.17;100909.91;5055869;28;19924;-45
2023/01/07 12:19:24;;;;;;;;;;;;;;;13.13;65.16;100899.63;5059235;28;19923;-45
2023/01/07 12:22:01;;;;;;;;;;;;;;;13.15;64.41;100895.34;5057982;28;20973;-42
2023/01/07 12:24:36;;;;;;;;;;;;;;;13.18;65.04;100891.97;5061817;28;19916;-44
2023/01/07 12:27:16;;;;;;;;;;;;;;;13.20;65.75;100877.38;5062521;28;20863;-43
2023/01/07 12:29:50;;;;;;;;;;;;;;;13.18;64.03;100879.06;5057677;28;20266;-46
2023/01/07 12:32:25;;;;;;;;;;;;;;;13.21;65.12;100873.09;5058919;28;19920;-43
2023/01/07 12:34:54;;;;;;;;;;;;;;;13.22;65.31;100870.53;5088155;27;19982;-43
2023/01/07 12:37:25;;;;;;;;;;;;;;;13.26;64.39;100872.34;5055901;28;19923;-46
2023/01/07 12:39:54;;;;;;;;;;;;;;;13.26;64.34;100867.19;5057275;28;20014;-42
2023/01/07 12:42:23;;;;;;;;;;;;;;;13.30;64.53;100857.78;5060893;28;19928;-43